sensor_id;sensor_type;location;lat;lon;timestamp;P1;durP1;ratioP1;P2;durP2;ratioP2
66559;SDS011;53413;49.878;8.142;2024-01-15T00:01:53;17.90;;;5.27;;
66559;SDS011;53413;49.878;8.142;2024-01-15T00:04:18;19.23;;;4.17;;
66559;SDS011;53413;49.878;8.142;2024-01-15T00:06:44;14.40;;;3.70;;
66559;SDS011;53413;49.878;8.142;2024-01-15T00:09:09;10.63;;;3.27;;
66559;SDS011;53413;49.878;8.142;2024-01-15T00:11:35;15.88;;;3.55;;
66559;SDS011;53413;49.878;8.142;2024-01-15T00:14:00;18.93;;;4.63;;
66559;SDS011;53413;49.878;8.142;2024-01-15T00:16:25;18.13;;;4.60;;
66559;SDS011;53413;49.878;8.142;2024-01-15T00:18:51;18.07;;;4.30;;
66559;SDS011;53413;49.878;8.142;2024-01-15T00:21:16;18.83;;;4.77;;
66559;SDS011;53413;49.878;8.142;2024-01-15T00:23:42;14.37;;;3.60;;
66559;SDS011;53413;49.878;8.142;2024-01-15T00:26:09;14.35;;;4.30;;
66559;SDS011;53413;49.878;8.142;2024-01-15T00:28:35;18.60;;;4.13;;
66559;SDS011;53413;49.878;8.142;2024-01-15T00:31:04;18.53;;;4.60;;
66559;SDS011;53413;49.878;8.142;2024-01-15T00:33:30;16.30;;;4.43;;
66559;SDS011;53413;49.878;8.142;2024-01-15T00:35:55;18.17;;;4.75;;
66559;SDS011;53413;49.878;8.142;2024-01-15T00:38:21;19.47;;;4.23;;
66559;SDS011;53413;49.878;8.142;2024-01-15T00:40:46;21.27;;;4.50;;
66559;SDS011;53413;49.878;8.142;2024-01-15T00:43:11;13.67;;;4.10;;
66559;SDS011;53413;49.878;8.142;2024-01-15T00:45:37;20.87;;;4.93;;
66559;SDS011;53413;49.878;8.142;2024-01-15T00:48:02;15.17;;;4.30;;
66559;SDS011;53413;49.878;8.142;2024-01-15T00:50:28;13.70;;;4.15;;
66559;SDS011;53413;49.878;8.142;2024-01-15T00:52:54;16.25;;;4.45;;
66559;SDS011;53413;49.878;8.142;2024-01-15T00:55:19;15.07;;;3.33;;
66559;SDS011;53413;49.878;8.142;2024-01-15T00:57:45;18.17;;;4.30;;
66559;SDS011;53413;49.878;8.142;2024-01-15T01:00:10;14.30;;;3.80;;
66559;SDS011;53413;49.878;8.142;2024-01-15T01:02:39;16.23;;;4.38;;
66559;SDS011;53413;49.878;8.142;2024-01-15T01:05:04;20.88;;;4.72;;
66559;SDS011;53413;49.878;8.142;2024-01-15T01:07:30;16.63;;;4.10;;
66559;SDS011;53413;49.878;8.142;2024-01-15T01:09:55;19.43;;;4.27;;
66559;SDS011;53413;49.878;8.142;2024-01-15T01:12:20;14.80;;;4.10;;
66559;SDS011;53413;49.878;8.142;2024-01-15T01:14:46;19.43;;;4.63;;
66559;SDS011;53413;49.878;8.142;2024-01-15T01:17:11;14.93;;;3.77;;
66559;SDS011;53413;49.878;8.142;2024-01-15T01:19:36;14.20;;;4.27;;
66559;SDS011;53413;49.878;8.142;2024-01-15T01:22:02;17.00;;;4.60;;
66559;SDS011;53413;49.878;8.142;2024-01-15T01:24:27;12.07;;;3.10;;
66559;SDS011;53413;49.878;8.142;2024-01-15T01:26:53;12.50;;;3.10;;
66559;SDS011;53413;49.878;8.142;2024-01-15T01:29:18;19.33;;;4.53;;
66559;SDS011;53413;49.878;8.142;2024-01-15T01:31:44;12.83;;;3.93;;
66559;SDS011;53413;49.878;8.142;2024-01-15T01:34:10;15.55;;;4.10;;
66559;SDS011;53413;49.878;8.142;2024-01-15T01:36:35;16.03;;;3.93;;
66559;SDS011;53413;49.878;8.142;2024-01-15T01:39:00;16.43;;;4.30;;
66559;SDS011;53413;49.878;8.142;2024-01-15T01:41:26;14.80;;;4.25;;
66559;SDS011;53413;49.878;8.142;2024-01-15T01:43:51;19.10;;;4.20;;
66559;SDS011;53413;49.878;8.142;2024-01-15T01:46:17;17.67;;;4.17;;
66559;SDS011;53413;49.878;8.142;2024-01-15T01:48:42;15.27;;;4.00;;
66559;SDS011;53413;49.878;8.142;2024-01-15T01:51:08;15.00;;;4.35;;
66559;SDS011;53413;49.878;8.142;2024-01-15T01:53:34;15.90;;;4.45;;
66559;SDS011;53413;49.878;8.142;2024-01-15T01:56:03;16.40;;;4.50;;
66559;SDS011;53413;49.878;8.142;2024-01-15T01:58:29;16.67;;;4.28;;
66559;SDS011;53413;49.878;8.142;2024-01-15T02:00:55;15.18;;;3.88;;
66559;SDS011;53413;49.878;8.142;2024-01-15T02:03:21;17.70;;;4.27;;
66559;SDS011;53413;49.878;8.142;2024-01-15T02:05:47;15.02;;;4.25;;
66559;SDS011;53413;49.878;8.142;2024-01-15T02:08:14;13.75;;;3.70;;
66559;SDS011;53413;49.878;8.142;2024-01-15T02:10:40;18.57;;;4.30;;
66559;SDS011;53413;49.878;8.142;2024-01-15T02:13:05;13.07;;;3.90;;
66559;SDS011;53413;49.878;8.142;2024-01-15T02:15:31;15.37;;;4.00;;
66559;SDS011;53413;49.878;8.142;2024-01-15T02:17:59;13.67;;;3.60;;
66559;SDS011;53413;49.878;8.142;2024-01-15T02:20:26;15.05;;;4.05;;
66559;SDS011;53413;49.878;8.142;2024-01-15T02:22:51;14.18;;;3.92;;
66559;SDS011;53413;49.878;8.142;2024-01-15T02:25:17;13.20;;;3.47;;
66559;SDS011;53413;49.878;8.142;2024-01-15T02:27:43;13.65;;;2.83;;
66559;SDS011;53413;49.878;8.142;2024-01-15T02:30:09;13.10;;;3.50;;
66559;SDS011;53413;49.878;8.142;2024-01-15T02:32:36;18.33;;;4.40;;
66559;SDS011;53413;49.878;8.142;2024-01-15T02:35:02;13.80;;;3.40;;
66559;SDS011;53413;49.878;8.142;2024-01-15T02:37:27;15.50;;;3.80;;
66559;SDS011;53413;49.878;8.142;2024-01-15T02:39:53;14.07;;;3.90;;
66559;SDS011;53413;49.878;8.142;2024-01-15T02:42:18;14.73;;;3.57;;
66559;SDS011;53413;49.878;8.142;2024-01-15T02:44:43;18.50;;;3.63;;
66559;SDS011;53413;49.878;8.142;2024-01-15T02:47:09;13.77;;;3.70;;
66559;SDS011;53413;49.878;8.142;2024-01-15T02:49:34;13.43;;;3.73;;
66559;SDS011;53413;49.878;8.142;2024-01-15T02:51:59;12.80;;;3.33;;
66559;SDS011;53413;49.878;8.142;2024-01-15T02:54:25;11.80;;;3.28;;
66559;SDS011;53413;49.878;8.142;2024-01-15T02:56:50;15.17;;;4.00;;
66559;SDS011;53413;49.878;8.142;2024-01-15T02:59:16;13.47;;;3.87;;
66559;SDS011;53413;49.878;8.142;2024-01-15T03:01:41;16.37;;;3.60;;
66559;SDS011;53413;49.878;8.142;2024-01-15T03:04:06;14.10;;;3.37;;
66559;SDS011;53413;49.878;8.142;2024-01-15T03:06:31;13.97;;;3.63;;
66559;SDS011;53413;49.878;8.142;2024-01-15T03:08:57;15.97;;;3.27;;
66559;SDS011;53413;49.878;8.142;2024-01-15T03:11:22;14.47;;;3.37;;
66559;SDS011;53413;49.878;8.142;2024-01-15T03:13:48;17.70;;;4.07;;
66559;SDS011;53413;49.878;8.142;2024-01-15T03:16:13;13.50;;;3.17;;
66559;SDS011;53413;49.878;8.142;2024-01-15T03:18:38;14.33;;;3.70;;
66559;SDS011;53413;49.878;8.142;2024-01-15T03:21:04;13.90;;;3.73;;
66559;SDS011;53413;49.878;8.142;2024-01-15T03:23:30;16.52;;;4.60;;
66559;SDS011;53413;49.878;8.142;2024-01-15T03:25:55;12.63;;;3.60;;
66559;SDS011;53413;49.878;8.142;2024-01-15T03:28:20;17.23;;;4.10;;
66559;SDS011;53413;49.878;8.142;2024-01-15T03:30:46;19.37;;;4.17;;
66559;SDS011;53413;49.878;8.142;2024-01-15T03:33:11;15.93;;;3.67;;
66559;SDS011;53413;49.878;8.142;2024-01-15T03:35:36;14.47;;;4.33;;
66559;SDS011;53413;49.878;8.142;2024-01-15T03:38:02;15.60;;;3.97;;
66559;SDS011;53413;49.878;8.142;2024-01-15T03:40:27;17.40;;;4.22;;
66559;SDS011;53413;49.878;8.142;2024-01-15T03:42:53;17.67;;;4.20;;
66559;SDS011;53413;49.878;8.142;2024-01-15T03:45:18;12.27;;;3.47;;
66559;SDS011;53413;49.878;8.142;2024-01-15T03:47:44;13.50;;;3.80;;
66559;SDS011;53413;49.878;8.142;2024-01-15T03:50:09;21.83;;;4.40;;
66559;SDS011;53413;49.878;8.142;2024-01-15T03:52:35;15.03;;;3.87;;
66559;SDS011;53413;49.878;8.142;2024-01-15T03:55:00;15.37;;;4.40;;
66559;SDS011;53413;49.878;8.142;2024-01-15T03:57:25;15.10;;;4.27;;
66559;SDS011;53413;49.878;8.142;2024-01-15T03:59:51;15.57;;;4.35;;
66559;SDS011;53413;49.878;8.142;2024-01-15T04:02:17;15.60;;;4.23;;
66559;SDS011;53413;49.878;8.142;2024-01-15T04:04:42;16.07;;;4.57;;
66559;SDS011;53413;49.878;8.142;2024-01-15T04:07:09;15.93;;;4.28;;
66559;SDS011;53413;49.878;8.142;2024-01-15T04:09:34;16.05;;;4.07;;
66559;SDS011;53413;49.878;8.142;2024-01-15T04:12:00;13.33;;;4.10;;
66559;SDS011;53413;49.878;8.142;2024-01-15T04:14:25;15.33;;;3.70;;
66559;SDS011;53413;49.878;8.142;2024-01-15T04:16:50;14.70;;;3.70;;
66559;SDS011;53413;49.878;8.142;2024-01-15T04:19:16;15.17;;;4.23;;
66559;SDS011;53413;49.878;8.142;2024-01-15T04:21:41;15.67;;;3.90;;
66559;SDS011;53413;49.878;8.142;2024-01-15T04:24:06;18.03;;;4.23;;
66559;SDS011;53413;49.878;8.142;2024-01-15T04:26:32;17.38;;;4.40;;
66559;SDS011;53413;49.878;8.142;2024-01-15T04:28:57;14.90;;;3.40;;
66559;SDS011;53413;49.878;8.142;2024-01-15T04:31:24;16.13;;;4.27;;
66559;SDS011;53413;49.878;8.142;2024-01-15T04:33:50;19.95;;;4.13;;
66559;SDS011;53413;49.878;8.142;2024-01-15T04:36:15;15.68;;;4.70;;
66559;SDS011;53413;49.878;8.142;2024-01-15T04:38:41;17.47;;;4.33;;
66559;SDS011;53413;49.878;8.142;2024-01-15T04:41:06;21.77;;;5.27;;
66559;SDS011;53413;49.878;8.142;2024-01-15T04:43:36;18.98;;;4.68;;
66559;SDS011;53413;49.878;8.142;2024-01-15T04:46:01;21.47;;;4.57;;
66559;SDS011;53413;49.878;8.142;2024-01-15T04:48:28;17.80;;;4.20;;
66559;SDS011;53413;49.878;8.142;2024-01-15T04:50:54;16.40;;;4.47;;
66559;SDS011;53413;49.878;8.142;2024-01-15T04:53:20;15.60;;;3.93;;
66559;SDS011;53413;49.878;8.142;2024-01-15T04:55:45;14.77;;;3.80;;
66559;SDS011;53413;49.878;8.142;2024-01-15T04:58:10;17.35;;;4.35;;
66559;SDS011;53413;49.878;8.142;2024-01-15T05:00:36;16.23;;;4.00;;
66559;SDS011;53413;49.878;8.142;2024-01-15T05:03:01;16.40;;;4.67;;
66559;SDS011;53413;49.878;8.142;2024-01-15T05:05:26;16.47;;;4.37;;
66559;SDS011;53413;49.878;8.142;2024-01-15T05:07:51;19.30;;;4.53;;
66559;SDS011;53413;49.878;8.142;2024-01-15T05:10:17;14.30;;;3.97;;
66559;SDS011;53413;49.878;8.142;2024-01-15T05:12:42;21.37;;;4.83;;
66559;SDS011;53413;49.878;8.142;2024-01-15T05:15:08;17.80;;;5.03;;
66559;SDS011;53413;49.878;8.142;2024-01-15T05:17:34;18.33;;;4.45;;
66559;SDS011;53413;49.878;8.142;2024-01-15T05:19:59;18.93;;;4.70;;
66559;SDS011;53413;49.878;8.142;2024-01-15T05:22:25;17.40;;;4.50;;
66559;SDS011;53413;49.878;8.142;2024-01-15T05:24:50;16.70;;;4.43;;
66559;SDS011;53413;49.878;8.142;2024-01-15T05:27:15;15.77;;;4.05;;
66559;SDS011;53413;49.878;8.142;2024-01-15T05:29:41;16.58;;;4.60;;
66559;SDS011;53413;49.878;8.142;2024-01-15T05:32:06;11.40;;;3.57;;
66559;SDS011;53413;49.878;8.142;2024-01-15T05:34:31;12.97;;;3.67;;
66559;SDS011;53413;49.878;8.142;2024-01-15T05:36:57;19.27;;;3.97;;
66559;SDS011;53413;49.878;8.142;2024-01-15T05:39:22;11.90;;;3.43;;
66559;SDS011;53413;49.878;8.142;2024-01-15T05:41:48;14.80;;;4.03;;
66559;SDS011;53413;49.878;8.142;2024-01-15T05:44:13;15.57;;;4.05;;
66559;SDS011;53413;49.878;8.142;2024-01-15T05:46:38;14.80;;;3.63;;
66559;SDS011;53413;49.878;8.142;2024-01-15T05:49:04;12.93;;;3.43;;
66559;SDS011;53413;49.878;8.142;2024-01-15T05:51:29;13.07;;;4.20;;
66559;SDS011;53413;49.878;8.142;2024-01-15T05:53:54;16.13;;;4.20;;
66559;SDS011;53413;49.878;8.142;2024-01-15T05:56:20;15.83;;;4.43;;
66559;SDS011;53413;49.878;8.142;2024-01-15T05:58:45;17.47;;;4.07;;
66559;SDS011;53413;49.878;8.142;2024-01-15T06:01:10;13.53;;;4.10;;
66559;SDS011;53413;49.878;8.142;2024-01-15T06:03:36;17.00;;;4.37;;
66559;SDS011;53413;49.878;8.142;2024-01-15T06:06:01;13.65;;;3.60;;
66559;SDS011;53413;49.878;8.142;2024-01-15T06:08:27;14.40;;;3.43;;
66559;SDS011;53413;49.878;8.142;2024-01-15T06:10:53;13.48;;;3.72;;
66559;SDS011;53413;49.878;8.142;2024-01-15T06:13:18;15.73;;;4.27;;
66559;SDS011;53413;49.878;8.142;2024-01-15T06:15:44;13.73;;;4.20;;
66559;SDS011;53413;49.878;8.142;2024-01-15T06:18:09;15.13;;;4.23;;
66559;SDS011;53413;49.878;8.142;2024-01-15T06:20:34;12.75;;;3.70;;
66559;SDS011;53413;49.878;8.142;2024-01-15T06:23:00;13.23;;;4.03;;
66559;SDS011;53413;49.878;8.142;2024-01-15T06:25:25;15.27;;;3.30;;
66559;SDS011;53413;49.878;8.142;2024-01-15T06:27:50;16.83;;;4.33;;
66559;SDS011;53413;49.878;8.142;2024-01-15T06:30:16;16.27;;;4.37;;
66559;SDS011;53413;49.878;8.142;2024-01-15T06:32:41;13.07;;;3.50;;
66559;SDS011;53413;49.878;8.142;2024-01-15T06:35:07;13.43;;;3.50;;
66559;SDS011;53413;49.878;8.142;2024-01-15T06:37:32;15.02;;;3.60;;
66559;SDS011;53413;49.878;8.142;2024-01-15T06:39:58;17.33;;;4.37;;
66559;SDS011;53413;49.878;8.142;2024-01-15T06:42:23;18.73;;;5.00;;
66559;SDS011;53413;49.878;8.142;2024-01-15T06:44:48;21.93;;;5.27;;
66559;SDS011;53413;49.878;8.142;2024-01-15T06:47:14;25.50;;;5.47;;
66559;SDS011;53413;49.878;8.142;2024-01-15T06:49:39;20.65;;;5.75;;
66559;SDS011;53413;49.878;8.142;2024-01-15T06:52:05;19.40;;;5.10;;
66559;SDS011;53413;49.878;8.142;2024-01-15T06:54:31;17.40;;;4.40;;
66559;SDS011;53413;49.878;8.142;2024-01-15T06:56:56;17.50;;;5.20;;
66559;SDS011;53413;49.878;8.142;2024-01-15T06:59:22;23.10;;;5.57;;
66559;SDS011;53413;49.878;8.142;2024-01-15T07:01:47;17.90;;;5.00;;
66559;SDS011;53413;49.878;8.142;2024-01-15T07:04:12;18.07;;;4.90;;
66559;SDS011;53413;49.878;8.142;2024-01-15T07:06:38;18.27;;;4.60;;
66559;SDS011;53413;49.878;8.142;2024-01-15T07:09:03;19.07;;;5.20;;
66559;SDS011;53413;49.878;8.142;2024-01-15T07:11:29;17.37;;;4.60;;
66559;SDS011;53413;49.878;8.142;2024-01-15T07:13:54;17.23;;;4.47;;
66559;SDS011;53413;49.878;8.142;2024-01-15T07:16:19;16.40;;;4.50;;
66559;SDS011;53413;49.878;8.142;2024-01-15T07:18:45;16.85;;;4.93;;
66559;SDS011;53413;49.878;8.142;2024-01-15T07:21:10;19.93;;;5.67;;
66559;SDS011;53413;49.878;8.142;2024-01-15T07:23:36;22.37;;;5.60;;
66559;SDS011;53413;49.878;8.142;2024-01-15T07:26:01;15.83;;;4.03;;
66559;SDS011;53413;49.878;8.142;2024-01-15T07:28:30;18.58;;;4.88;;
66559;SDS011;53413;49.878;8.142;2024-01-15T07:30:55;15.57;;;4.47;;
66559;SDS011;53413;49.878;8.142;2024-01-15T07:33:21;16.27;;;4.32;;
66559;SDS011;53413;49.878;8.142;2024-01-15T07:35:46;17.57;;;4.90;;
66559;SDS011;53413;49.878;8.142;2024-01-15T07:38:11;13.93;;;3.90;;
66559;SDS011;53413;49.878;8.142;2024-01-15T07:40:37;15.57;;;4.53;;
66559;SDS011;53413;49.878;8.142;2024-01-15T07:43:02;16.67;;;5.03;;
66559;SDS011;53413;49.878;8.142;2024-01-15T07:45:28;17.90;;;4.95;;
66559;SDS011;53413;49.878;8.142;2024-01-15T07:47:53;15.67;;;4.87;;
66559;SDS011;53413;49.878;8.142;2024-01-15T07:50:18;13.00;;;4.40;;
66559;SDS011;53413;49.878;8.142;2024-01-15T07:52:44;13.27;;;3.40;;
66559;SDS011;53413;49.878;8.142;2024-01-15T07:55:09;11.87;;;3.50;;
66559;SDS011;53413;49.878;8.142;2024-01-15T07:57:34;14.27;;;4.13;;
66559;SDS011;53413;49.878;8.142;2024-01-15T08:00:01;16.02;;;4.50;;
66559;SDS011;53413;49.878;8.142;2024-01-15T08:02:27;15.00;;;4.00;;
66559;SDS011;53413;49.878;8.142;2024-01-15T08:04:52;15.33;;;4.10;;
66559;SDS011;53413;49.878;8.142;2024-01-15T08:07:17;15.57;;;3.93;;
66559;SDS011;53413;49.878;8.142;2024-01-15T08:09:43;13.80;;;3.73;;
66559;SDS011;53413;49.878;8.142;2024-01-15T08:12:08;17.50;;;4.85;;
66559;SDS011;53413;49.878;8.142;2024-01-15T08:14:35;14.67;;;3.97;;
66559;SDS011;53413;49.878;8.142;2024-01-15T08:17:00;17.70;;;4.55;;
66559;SDS011;53413;49.878;8.142;2024-01-15T08:19:26;22.23;;;4.90;;
66559;SDS011;53413;49.878;8.142;2024-01-15T08:21:52;16.03;;;4.07;;
66559;SDS011;53413;49.878;8.142;2024-01-15T08:24:18;19.70;;;4.57;;
66559;SDS011;53413;49.878;8.142;2024-01-15T08:26:43;15.47;;;4.27;;
66559;SDS011;53413;49.878;8.142;2024-01-15T08:29:08;19.23;;;5.90;;
66559;SDS011;53413;49.878;8.142;2024-01-15T08:31:34;17.07;;;4.53;;
66559;SDS011;53413;49.878;8.142;2024-01-15T08:33:59;15.67;;;4.27;;
66559;SDS011;53413;49.878;8.142;2024-01-15T08:36:26;15.15;;;4.07;;
66559;SDS011;53413;49.878;8.142;2024-01-15T08:38:54;13.37;;;4.00;;
66559;SDS011;53413;49.878;8.142;2024-01-15T08:41:20;14.80;;;4.93;;
66559;SDS011;53413;49.878;8.142;2024-01-15T08:43:45;13.23;;;3.60;;
66559;SDS011;53413;49.878;8.142;2024-01-15T08:46:10;15.07;;;3.97;;
66559;SDS011;53413;49.878;8.142;2024-01-15T08:48:36;15.40;;;4.90;;
66559;SDS011;53413;49.878;8.142;2024-01-15T08:51:01;18.17;;;5.10;;
66559;SDS011;53413;49.878;8.142;2024-01-15T08:53:27;18.63;;;4.80;;
66559;SDS011;53413;49.878;8.142;2024-01-15T08:55:53;18.15;;;5.18;;
66559;SDS011;53413;49.878;8.142;2024-01-15T08:58:18;14.27;;;4.47;;
66559;SDS011;53413;49.878;8.142;2024-01-15T09:00:43;17.33;;;4.53;;
66559;SDS011;53413;49.878;8.142;2024-01-15T09:03:09;19.87;;;5.73;;
66559;SDS011;53413;49.878;8.142;2024-01-15T09:05:35;13.48;;;4.38;;
66559;SDS011;53413;49.878;8.142;2024-01-15T09:08:00;15.77;;;4.13;;
66559;SDS011;53413;49.878;8.142;2024-01-15T09:10:25;13.43;;;3.73;;
66559;SDS011;53413;49.878;8.142;2024-01-15T09:12:51;16.37;;;4.93;;
66559;SDS011;53413;49.878;8.142;2024-01-15T09:15:16;16.37;;;4.70;;
66559;SDS011;53413;49.878;8.142;2024-01-15T09:17:42;18.00;;;4.65;;
66559;SDS011;53413;49.878;8.142;2024-01-15T09:20:08;18.27;;;4.70;;
66559;SDS011;53413;49.878;8.142;2024-01-15T09:22:34;19.08;;;5.53;;
66559;SDS011;53413;49.878;8.142;2024-01-15T09:25:00;14.18;;;3.95;;
66559;SDS011;53413;49.878;8.142;2024-01-15T09:27:25;17.83;;;4.50;;
66559;SDS011;53413;49.878;8.142;2024-01-15T09:29:51;16.93;;;4.43;;
66559;SDS011;53413;49.878;8.142;2024-01-15T09:32:17;17.77;;;5.45;;
66559;SDS011;53413;49.878;8.142;2024-01-15T09:34:43;14.63;;;4.20;;
66559;SDS011;53413;49.878;8.142;2024-01-15T09:37:08;15.10;;;4.63;;
66559;SDS011;53413;49.878;8.142;2024-01-15T09:39:34;16.92;;;4.68;;
66559;SDS011;53413;49.878;8.142;2024-01-15T09:41:59;21.53;;;5.30;;
66559;SDS011;53413;49.878;8.142;2024-01-15T09:44:25;16.38;;;4.88;;
66559;SDS011;53413;49.878;8.142;2024-01-15T09:46:52;17.07;;;5.10;;
66559;SDS011;53413;49.878;8.142;2024-01-15T09:49:18;16.55;;;4.75;;
66559;SDS011;53413;49.878;8.142;2024-01-15T09:51:44;14.05;;;4.70;;
66559;SDS011;53413;49.878;8.142;2024-01-15T09:54:10;16.00;;;4.97;;
66559;SDS011;53413;49.878;8.142;2024-01-15T09:56:38;15.48;;;4.38;;
66559;SDS011;53413;49.878;8.142;2024-01-15T09:59:03;15.37;;;4.80;;
66559;SDS011;53413;49.878;8.142;2024-01-15T10:01:29;17.88;;;4.95;;
66559;SDS011;53413;49.878;8.142;2024-01-15T10:03:56;18.03;;;5.13;;
66559;SDS011;53413;49.878;8.142;2024-01-15T10:06:23;19.08;;;5.35;;
66559;SDS011;53413;49.878;8.142;2024-01-15T10:08:52;19.27;;;5.35;;
66559;SDS011;53413;49.878;8.142;2024-01-15T10:11:18;19.25;;;5.25;;
66559;SDS011;53413;49.878;8.142;2024-01-15T10:13:44;15.83;;;5.17;;
66559;SDS011;53413;49.878;8.142;2024-01-15T10:16:10;17.37;;;5.20;;
66559;SDS011;53413;49.878;8.142;2024-01-15T10:18:36;17.52;;;4.63;;
66559;SDS011;53413;49.878;8.142;2024-01-15T10:21:02;15.27;;;4.05;;
66559;SDS011;53413;49.878;8.142;2024-01-15T10:23:28;13.85;;;4.72;;
66559;SDS011;53413;49.878;8.142;2024-01-15T10:25:53;13.57;;;4.23;;
66559;SDS011;53413;49.878;8.142;2024-01-15T10:28:18;16.87;;;5.20;;
66559;SDS011;53413;49.878;8.142;2024-01-15T10:30:46;16.80;;;5.13;;
66559;SDS011;53413;49.878;8.142;2024-01-15T10:33:11;16.60;;;4.20;;
66559;SDS011;53413;49.878;8.142;2024-01-15T10:35:37;14.80;;;4.37;;
66559;SDS011;53413;49.878;8.142;2024-01-15T10:38:03;15.02;;;4.15;;
66559;SDS011;53413;49.878;8.142;2024-01-15T10:40:30;14.60;;;4.40;;
66559;SDS011;53413;49.878;8.142;2024-01-15T10:42:56;15.15;;;4.53;;
66559;SDS011;53413;49.878;8.142;2024-01-15T10:45:22;14.00;;;3.90;;
66559;SDS011;53413;49.878;8.142;2024-01-15T10:47:48;14.85;;;4.63;;
66559;SDS011;53413;49.878;8.142;2024-01-15T10:50:13;15.63;;;4.20;;
66559;SDS011;53413;49.878;8.142;2024-01-15T10:52:39;16.60;;;4.75;;
66559;SDS011;53413;49.878;8.142;2024-01-15T10:55:09;15.95;;;4.65;;
66559;SDS011;53413;49.878;8.142;2024-01-15T10:57:37;15.23;;;4.30;;
66559;SDS011;53413;49.878;8.142;2024-01-15T11:00:06;13.38;;;4.10;;
66559;SDS011;53413;49.878;8.142;2024-01-15T11:02:35;10.45;;;3.60;;
66559;SDS011;53413;49.878;8.142;2024-01-15T11:05:02;15.87;;;5.03;;
66559;SDS011;53413;49.878;8.142;2024-01-15T11:07:29;14.30;;;4.65;;
66559;SDS011;53413;49.878;8.142;2024-01-15T11:09:56;15.63;;;4.55;;
66559;SDS011;53413;49.878;8.142;2024-01-15T11:12:23;11.18;;;3.88;;
66559;SDS011;53413;49.878;8.142;2024-01-15T11:14:49;14.00;;;3.67;;
66559;SDS011;53413;49.878;8.142;2024-01-15T11:17:16;16.85;;;4.20;;
66559;SDS011;53413;49.878;8.142;2024-01-15T11:24:55;13.60;;;4.20;;
66559;SDS011;53413;49.878;8.142;2024-01-15T11:27:40;15.38;;;4.20;;
66559;SDS011;53413;49.878;8.142;2024-01-15T11:30:09;13.35;;;4.10;;
66559;SDS011;53413;49.878;8.142;2024-01-15T11:32:36;13.95;;;4.32;;
66559;SDS011;53413;49.878;8.142;2024-01-15T11:35:01;11.07;;;3.87;;
66559;SDS011;53413;49.878;8.142;2024-01-15T11:38:13;13.02;;;4.05;;
66559;SDS011;53413;49.878;8.142;2024-01-15T11:40:19;10.45;;;3.60;;
66559;SDS011;53413;49.878;8.142;2024-01-15T11:42:45;12.43;;;3.80;;
66559;SDS011;53413;49.878;8.142;2024-01-15T11:45:11;12.30;;;3.80;;
66559;SDS011;53413;49.878;8.142;2024-01-15T11:47:53;11.60;;;3.87;;
66559;SDS011;53413;49.878;8.142;2024-01-15T11:50:48;12.30;;;3.67;;
66559;SDS011;53413;49.878;8.142;2024-01-15T11:53:23;10.93;;;3.80;;
66559;SDS011;53413;49.878;8.142;2024-01-15T11:55:57;12.48;;;4.13;;
66559;SDS011;53413;49.878;8.142;2024-01-15T11:58:24;11.60;;;3.87;;
66559;SDS011;53413;49.878;8.142;2024-01-15T12:00:51;17.63;;;5.63;;
66559;SDS011;53413;49.878;8.142;2024-01-15T12:03:17;13.00;;;4.82;;
66559;SDS011;53413;49.878;8.142;2024-01-15T12:05:45;11.63;;;4.13;;
66559;SDS011;53413;49.878;8.142;2024-01-15T12:08:10;12.20;;;3.90;;
66559;SDS011;53413;49.878;8.142;2024-01-15T12:10:36;11.93;;;3.83;;
66559;SDS011;53413;49.878;8.142;2024-01-15T12:13:12;9.82;;;3.65;;
66559;SDS011;53413;49.878;8.142;2024-01-15T12:15:39;10.07;;;2.77;;
66559;SDS011;53413;49.878;8.142;2024-01-15T12:18:07;11.95;;;3.90;;
66559;SDS011;53413;49.878;8.142;2024-01-15T12:20:34;8.93;;;3.15;;
66559;SDS011;53413;49.878;8.142;2024-01-15T12:23:00;8.23;;;3.20;;
66559;SDS011;53413;49.878;8.142;2024-01-15T12:25:26;10.65;;;2.88;;
66559;SDS011;53413;49.878;8.142;2024-01-15T12:27:52;9.75;;;2.85;;
66559;SDS011;53413;49.878;8.142;2024-01-15T12:30:18;9.60;;;3.00;;
66559;SDS011;53413;49.878;8.142;2024-01-15T12:32:44;9.68;;;3.30;;
66559;SDS011;53413;49.878;8.142;2024-01-15T12:35:10;12.32;;;3.63;;
66559;SDS011;53413;49.878;8.142;2024-01-15T12:37:36;9.43;;;3.53;;
66559;SDS011;53413;49.878;8.142;2024-01-15T12:40:03;10.40;;;3.70;;
66559;SDS011;53413;49.878;8.142;2024-01-15T12:42:31;9.13;;;2.58;;
66559;SDS011;53413;49.878;8.142;2024-01-15T12:44:57;9.80;;;3.45;;
66559;SDS011;53413;49.878;8.142;2024-01-15T12:47:22;9.10;;;3.10;;
66559;SDS011;53413;49.878;8.142;2024-01-15T12:49:48;9.03;;;3.23;;
66559;SDS011;53413;49.878;8.142;2024-01-15T12:52:18;10.55;;;2.88;;
66559;SDS011;53413;49.878;8.142;2024-01-15T12:54:44;12.63;;;3.17;;
66559;SDS011;53413;49.878;8.142;2024-01-15T12:57:09;7.50;;;2.63;;
66559;SDS011;53413;49.878;8.142;2024-01-15T12:59:35;9.80;;;2.97;;
66559;SDS011;53413;49.878;8.142;2024-01-15T13:02:00;8.93;;;2.67;;
66559;SDS011;53413;49.878;8.142;2024-01-15T13:04:25;7.50;;;2.63;;
66559;SDS011;53413;49.878;8.142;2024-01-15T13:06:51;9.87;;;3.40;;
66559;SDS011;53413;49.878;8.142;2024-01-15T13:09:18;8.75;;;2.90;;
66559;SDS011;53413;49.878;8.142;2024-01-15T13:11:44;8.65;;;3.05;;
66559;SDS011;53413;49.878;8.142;2024-01-15T13:14:10;7.18;;;2.38;;
66559;SDS011;53413;49.878;8.142;2024-01-15T13:16:35;7.00;;;2.27;;
66559;SDS011;53413;49.878;8.142;2024-01-15T13:19:01;10.87;;;3.00;;
66559;SDS011;53413;49.878;8.142;2024-01-15T13:21:28;8.80;;;2.75;;
66559;SDS011;53413;49.878;8.142;2024-01-15T13:23:53;9.47;;;2.73;;
66559;SDS011;53413;49.878;8.142;2024-01-15T13:26:19;10.23;;;2.90;;
66559;SDS011;53413;49.878;8.142;2024-01-15T13:28:45;9.23;;;2.67;;
66559;SDS011;53413;49.878;8.142;2024-01-15T13:31:10;9.93;;;3.10;;
66559;SDS011;53413;49.878;8.142;2024-01-15T13:33:36;8.83;;;2.30;;
66559;SDS011;53413;49.878;8.142;2024-01-15T13:36:01;6.15;;;1.90;;
66559;SDS011;53413;49.878;8.142;2024-01-15T13:38:28;7.70;;;2.30;;
66559;SDS011;53413;49.878;8.142;2024-01-15T13:40:56;6.60;;;2.28;;
66559;SDS011;53413;49.878;8.142;2024-01-15T13:43:22;8.68;;;2.63;;
66559;SDS011;53413;49.878;8.142;2024-01-15T13:45:47;8.30;;;2.30;;
66559;SDS011;53413;49.878;8.142;2024-01-15T13:48:12;6.10;;;1.87;;
66559;SDS011;53413;49.878;8.142;2024-01-15T13:50:38;5.77;;;1.80;;
66559;SDS011;53413;49.878;8.142;2024-01-15T13:53:03;7.17;;;2.50;;
66559;SDS011;53413;49.878;8.142;2024-01-15T13:55:29;7.67;;;2.30;;
66559;SDS011;53413;49.878;8.142;2024-01-15T13:57:55;6.53;;;1.83;;
66559;SDS011;53413;49.878;8.142;2024-01-15T14:00:20;7.03;;;2.10;;
66559;SDS011;53413;49.878;8.142;2024-01-15T14:02:46;6.13;;;2.10;;
66559;SDS011;53413;49.878;8.142;2024-01-15T14:05:12;7.43;;;2.28;;
66559;SDS011;53413;49.878;8.142;2024-01-15T14:07:40;6.20;;;1.80;;
66559;SDS011;53413;49.878;8.142;2024-01-15T14:10:08;6.88;;;2.00;;
66559;SDS011;53413;49.878;8.142;2024-01-15T14:12:34;6.75;;;2.08;;
66559;SDS011;53413;49.878;8.142;2024-01-15T14:15:01;6.27;;;1.93;;
66559;SDS011;53413;49.878;8.142;2024-01-15T14:17:27;7.22;;;1.60;;
66559;SDS011;53413;49.878;8.142;2024-01-15T14:19:53;7.45;;;1.95;;
66559;SDS011;53413;49.878;8.142;2024-01-15T14:22:18;8.67;;;1.77;;
66559;SDS011;53413;49.878;8.142;2024-01-15T14:24:43;4.63;;;1.53;;
66559;SDS011;53413;49.878;8.142;2024-01-15T14:27:09;5.87;;;1.77;;
66559;SDS011;53413;49.878;8.142;2024-01-15T14:29:35;8.15;;;1.75;;
66559;SDS011;53413;49.878;8.142;2024-01-15T14:32:01;6.30;;;1.97;;
66559;SDS011;53413;49.878;8.142;2024-01-15T14:34:26;7.80;;;1.73;;